createdAt,value
2019-05-07T00:00:44.870Z,24.07
2019-05-07T00:03:17.170Z,25.70
2019-05-07T00:05:49.490Z,21.37
2019-05-07T00:08:22.910Z,32.37
2019-05-07T00:10:54.538Z,25.77
2019-05-07T00:13:26.153Z,20.63
2019-05-07T00:15:58.125Z,20.23
2019-05-07T00:18:32.168Z,20.33
2019-05-07T00:21:03.802Z,22.83
2019-05-07T00:23:35.309Z,18.53
2019-05-07T00:26:07.613Z,16.23
2019-05-07T00:28:39.180Z,14.90
2019-05-07T00:31:12.375Z,15.27
2019-05-07T00:33:44.127Z,15.37
2019-05-07T00:36:32.406Z,13.73
2019-05-07T00:39:29.513Z,12.60
2019-05-07T00:42:09.108Z,10.73
2019-05-07T00:44:57.375Z,15.80
2019-05-07T00:47:28.823Z,9.70
2019-05-07T00:50:04.096Z,6.60
2019-05-07T00:52:35.728Z,10.90
2019-05-07T00:55:07.194Z,10.73
2019-05-07T00:57:39.639Z,8.80
2019-05-07T01:00:13.126Z,8.77
2019-05-07T01:02:44.830Z,7.67
2019-05-07T01:05:18.217Z,11.13
2019-05-07T01:07:50.318Z,8.03
2019-05-07T01:10:23.346Z,10.27
2019-05-07T01:12:58.890Z,7.40
2019-05-07T01:15:32.158Z,5.93
2019-05-07T01:18:02.970Z,8.80
2019-05-07T01:20:34.815Z,6.70
2019-05-07T01:23:06.184Z,7.50
2019-05-07T01:25:38.511Z,7.50
2019-05-07T01:28:10.077Z,6.83
2019-05-07T01:30:43.223Z,10.73
2019-05-07T01:33:42.248Z,6.67
2019-05-07T01:36:17.180Z,9.17
2019-05-07T01:38:52.226Z,9.60
2019-05-07T01:41:23.586Z,7.13
2019-05-07T01:43:55.629Z,6.83
2019-05-07T01:46:27.146Z,6.90
2019-05-07T01:48:59.037Z,8.90
2019-05-07T01:51:32.561Z,7.77
2019-05-07T01:54:05.118Z,8.37
2019-05-07T01:56:37.235Z,6.40
2019-05-07T01:59:08.737Z,6.33
2019-05-07T02:01:42.723Z,8.63
2019-05-07T02:04:32.668Z,6.03
2019-05-07T02:07:22.913Z,7.03
2019-05-07T02:10:12.430Z,8.87
2019-05-07T02:12:45.284Z,7.50
2019-05-07T02:15:16.887Z,7.23
2019-05-07T02:17:48.335Z,6.20
2019-05-07T02:20:19.899Z,9.50
2019-05-07T02:22:53.202Z,6.97
2019-05-07T02:25:24.540Z,5.53
2019-05-07T02:27:56.925Z,8.77
2019-05-07T02:30:29.300Z,9.53
2019-05-07T02:33:03.706Z,7.87
2019-05-07T02:35:34.092Z,12.07
2019-05-07T02:38:13.695Z,13.00
2019-05-07T02:41:04.004Z,8.97
2019-05-07T02:43:36.777Z,8.47
2019-05-07T02:46:36.683Z,11.37
2019-05-07T02:49:33.076Z,10.73
2019-05-07T02:52:18.102Z,10.50
2019-05-07T02:55:03.539Z,8.93
2019-05-07T02:57:34.244Z,10.03
2019-05-07T03:00:09.013Z,7.07
2019-05-07T03:02:43.569Z,15.90
2019-05-07T03:05:14.237Z,7.63
2019-05-07T03:07:47.202Z,11.73
2019-05-07T03:10:18.716Z,11.93
2019-05-07T03:12:53.357Z,12.43
2019-05-07T03:15:24.333Z,7.73
2019-05-07T03:17:56.499Z,10.43
2019-05-07T03:20:37.914Z,10.87
2019-05-07T03:23:13.392Z,10.80
2019-05-07T03:26:03.974Z,14.13
2019-05-07T03:28:53.190Z,9.93
2019-05-07T03:31:36.186Z,14.70
2019-05-07T03:34:19.183Z,13.30
2019-05-07T03:36:56.342Z,15.37
2019-05-07T03:39:26.665Z,15.07
2019-05-07T03:41:58.169Z,15.73
2019-05-07T03:44:54.315Z,11.93
2019-05-07T03:47:36.939Z,8.50
2019-05-07T03:50:14.571Z,8.53
2019-05-07T03:52:45.016Z,9.87
2019-05-07T03:55:17.875Z,10.43
2019-05-07T03:57:52.530Z,9.90
2019-05-07T04:00:23.896Z,11.10
2019-05-07T04:02:55.688Z,8.57
2019-05-07T04:05:27.298Z,9.47
2019-05-07T04:07:58.767Z,11.53
2019-05-07T04:10:33.507Z,10.40
2019-05-07T04:13:05.258Z,8.78
2019-05-07T04:15:36.672Z,8.63
2019-05-07T04:18:09.108Z,12.55
2019-05-07T04:20:43.548Z,11.25
2019-05-07T04:23:15.217Z,7.60
2019-05-07T04:26:13.432Z,6.95
2019-05-07T04:28:54.125Z,9.30
2019-05-07T04:31:27.479Z,9.25
2019-05-07T04:34:03.716Z,7.17
2019-05-07T04:36:43.666Z,5.92
2019-05-07T04:39:16.992Z,10.82
2019-05-07T04:41:49.592Z,11.03
2019-05-07T04:44:23.504Z,5.67
2019-05-07T04:46:54.139Z,9.20
2019-05-07T04:49:25.623Z,10.23
2019-05-07T04:52:03.903Z,7.22
2019-05-07T04:54:35.811Z,10.75
2019-05-07T04:57:12.719Z,6.65
2019-05-07T04:59:43.387Z,9.70
2019-05-07T05:02:19.110Z,8.10
2019-05-07T05:04:53.061Z,8.03
2019-05-07T05:07:23.685Z,8.57
2019-05-07T05:09:55.141Z,7.10
2019-05-07T05:12:27.616Z,13.73
2019-05-07T05:15:02.011Z,9.20
2019-05-07T05:17:47.042Z,7.87
2019-05-07T05:20:09.258Z,6.53
2019-05-07T05:22:53.180Z,8.13
2019-05-07T05:25:32.166Z,10.10
2019-05-07T05:28:03.190Z,10.45
2019-05-07T05:30:42.444Z,7.80
2019-05-07T05:33:15.048Z,9.85
2019-05-07T05:35:46.466Z,6.35
2019-05-07T05:38:18.675Z,7.08
2019-05-07T05:40:52.131Z,5.22
2019-05-07T05:43:32.447Z,7.45
2019-05-07T05:46:05.983Z,7.62
2019-05-07T05:48:39.281Z,6.87
2019-05-07T05:51:28.231Z,7.50
2019-05-07T05:54:09.256Z,7.92
2019-05-07T05:56:52.450Z,8.78
2019-05-07T05:59:51.334Z,8.65
2019-05-07T06:02:37.735Z,8.88
2019-05-07T06:05:34.602Z,7.40
2019-05-07T06:08:43.425Z,4.28
2019-05-07T06:11:32.185Z,7.87
2019-05-07T06:14:08.375Z,6.62
2019-05-07T06:16:45.752Z,7.50
2019-05-07T06:19:32.800Z,5.22
2019-05-07T06:22:23.105Z,8.95
2019-05-07T06:25:14.516Z,7.17
2019-05-07T06:27:44.495Z,6.37
2019-05-07T06:30:17.299Z,7.10
2019-05-07T06:32:48.738Z,7.47
2019-05-07T06:35:22.793Z,6.47
2019-05-07T06:37:54.190Z,8.65
2019-05-07T06:40:33.922Z,6.78
2019-05-07T06:43:27.000Z,5.60
2019-05-07T06:45:59.138Z,6.93
2019-05-07T06:48:42.527Z,7.43
2019-05-07T06:51:05.922Z,7.37
2019-05-07T06:53:37.570Z,6.60
2019-05-07T06:56:12.045Z,7.17
2019-05-07T06:59:02.300Z,6.30
2019-05-07T07:01:53.045Z,7.77
2019-05-07T07:04:29.465Z,7.37
2019-05-07T07:07:26.132Z,5.47
2019-05-07T07:10:06.817Z,8.33
2019-05-07T07:12:39.120Z,3.13
2019-05-07T07:15:12.183Z,5.07
2019-05-07T07:17:52.479Z,5.87
2019-05-07T07:20:24.738Z,4.97
2019-05-07T07:22:56.271Z,7.20
2019-05-07T07:25:27.735Z,5.00
2019-05-07T07:27:59.717Z,6.37
2019-05-07T07:30:56.271Z,3.37
2019-05-07T07:33:31.986Z,10.63
2019-05-07T07:36:03.389Z,16.77
2019-05-07T07:38:35.544Z,6.97
2019-05-07T07:41:24.979Z,7.10
2019-05-07T07:43:57.035Z,6.57
2019-05-07T07:46:28.510Z,7.70
2019-05-07T07:49:09.888Z,4.57
2019-05-07T07:51:41.505Z,6.00
2019-05-07T07:54:07.524Z,5.63
2019-05-07T07:57:07.901Z,6.13
2019-05-07T07:59:58.536Z,4.60
2019-05-07T08:02:45.050Z,7.50
2019-05-07T08:05:16.735Z,7.33
2019-05-07T08:07:48.336Z,4.73
2019-05-07T08:10:22.126Z,6.83
2019-05-07T08:12:53.588Z,9.07
2019-05-07T08:15:25.087Z,4.47
2019-05-07T08:17:56.565Z,6.57
2019-05-07T08:20:28.367Z,7.87
2019-05-07T08:23:00.316Z,6.13
2019-05-07T08:25:48.299Z,6.77
2019-05-07T08:28:22.861Z,4.50
2019-05-07T08:31:13.066Z,5.40
2019-05-07T08:33:52.438Z,3.67
2019-05-07T08:36:23.851Z,8.33
2019-05-07T08:38:56.566Z,7.20
2019-05-07T08:41:29.242Z,7.30
2019-05-07T08:44:15.740Z,5.63
2019-05-07T08:46:54.312Z,7.27
2019-05-07T08:49:35.699Z,6.00
2019-05-07T08:52:03.623Z,10.67
2019-05-07T08:54:35.479Z,4.87
2019-05-07T08:57:07.349Z,6.87
2019-05-07T08:59:38.983Z,6.57
2019-05-07T09:02:12.580Z,5.67
2019-05-07T09:04:44.355Z,4.40
2019-05-07T09:07:16.825Z,16.20
2019-05-07T09:09:49.168Z,7.87
2019-05-07T09:12:22.779Z,5.60
2019-05-07T09:14:54.496Z,7.27
2019-05-07T09:17:27.195Z,8.37
2019-05-07T09:19:59.451Z,7.17
2019-05-07T09:22:32.294Z,8.63
2019-05-07T09:25:05.241Z,8.73
2019-05-07T09:27:43.704Z,4.83
2019-05-07T09:30:35.536Z,6.00
2019-05-07T09:33:14.751Z,11.53
2019-05-07T09:35:48.512Z,6.97
2019-05-07T09:38:22.185Z,5.17
2019-05-07T09:40:52.985Z,10.70
2019-05-07T09:43:24.968Z,5.90
2019-05-07T09:45:56.433Z,4.97
2019-05-07T09:48:28.055Z,3.83
2019-05-07T09:50:59.482Z,6.73
2019-05-07T09:53:32.013Z,8.27
2019-05-07T09:56:03.208Z,6.30
2019-05-07T09:58:38.518Z,4.40
2019-05-07T10:01:07.234Z,7.33
2019-05-07T10:03:39.348Z,5.50
2019-05-07T10:06:12.657Z,6.90
2019-05-07T10:08:44.273Z,6.53
2019-05-07T10:11:22.579Z,3.00
2019-05-07T10:14:01.913Z,4.47
2019-05-07T10:16:43.046Z,5.27
2019-05-07T10:19:15.583Z,6.67
2019-05-07T10:21:46.977Z,4.87
2019-05-07T10:24:18.645Z,6.97
2019-05-07T10:26:53.071Z,6.47
2019-05-07T10:29:24.646Z,10.60
2019-05-07T10:31:56.231Z,7.83
2019-05-07T10:34:28.836Z,5.20
2019-05-07T10:37:00.288Z,8.80
2019-05-07T10:39:33.003Z,6.90
2019-05-07T10:42:04.541Z,5.10
2019-05-07T10:44:43.287Z,7.10
2019-05-07T10:47:32.846Z,5.90
2019-05-07T10:50:35.586Z,5.30
2019-05-07T10:52:56.000Z,7.00
2019-05-07T10:55:27.535Z,6.33
2019-05-07T10:57:59.704Z,6.23
2019-05-07T11:00:33.623Z,9.57
2019-05-07T11:03:05.516Z,7.20
2019-05-07T11:05:37.870Z,10.60
2019-05-07T11:08:08.919Z,6.07
2019-05-07T11:10:41.767Z,8.43
2019-05-07T11:13:12.839Z,4.77
2019-05-07T11:15:46.532Z,8.23
2019-05-07T11:18:29.667Z,7.13
2019-05-07T11:21:02.677Z,4.83
2019-05-07T11:23:36.359Z,7.30
2019-05-07T11:26:08.183Z,8.47
2019-05-07T11:28:39.823Z,4.60
2019-05-07T11:31:12.428Z,7.30
2019-05-07T11:33:45.063Z,4.00
2019-05-07T11:36:17.398Z,3.53
2019-05-07T11:38:49.446Z,8.47
2019-05-07T11:41:57.407Z,4.97
2019-05-07T11:44:46.328Z,7.00
2019-05-07T11:47:36.033Z,6.67
2019-05-07T11:50:34.092Z,10.63
2019-05-07T11:53:23.501Z,5.63
2019-05-07T11:56:13.507Z,5.43
2019-05-07T11:58:45.154Z,7.17
2019-05-07T12:01:22.370Z,7.30
2019-05-07T12:03:53.195Z,7.37
2019-05-07T12:06:25.363Z,5.03
2019-05-07T12:08:57.319Z,4.00
2019-05-07T12:11:28.760Z,4.63
2019-05-07T12:14:02.014Z,6.37
2019-05-07T12:16:33.697Z,5.57
2019-05-07T12:19:06.416Z,9.17
2019-05-07T12:21:37.930Z,6.97
2019-05-07T12:24:09.349Z,6.40
2019-05-07T12:26:43.504Z,5.93
2019-05-07T12:29:16.387Z,4.97
2019-05-07T12:32:07.238Z,7.23
2019-05-07T12:34:43.320Z,8.03
2019-05-07T12:37:15.127Z,3.30
2019-05-07T12:39:46.603Z,7.50
2019-05-07T12:42:18.267Z,5.80
2019-05-07T12:44:51.765Z,4.17
2019-05-07T12:47:23.765Z,4.57
2019-05-07T12:49:55.262Z,5.43
2019-05-07T12:52:46.593Z,5.23
2019-05-07T12:55:39.422Z,5.57
2019-05-07T12:58:12.605Z,6.50
2019-05-07T13:01:03.536Z,7.40
2019-05-07T13:03:53.770Z,6.50
2019-05-07T13:06:25.745Z,4.03
2019-05-07T13:08:58.968Z,4.53
2019-05-07T13:11:32.593Z,4.90
2019-05-07T13:14:04.104Z,9.77
2019-05-07T13:16:36.875Z,6.80
2019-05-07T13:19:08.431Z,9.17
2019-05-07T13:21:49.031Z,2.27
2019-05-07T13:24:14.954Z,5.10
2019-05-07T13:26:47.693Z,5.97
2019-05-07T13:29:22.196Z,5.63
2019-05-07T13:31:59.324Z,5.40
2019-05-07T13:34:33.741Z,5.03
2019-05-07T13:37:12.756Z,6.03
2019-05-07T13:39:57.512Z,5.03
2019-05-07T13:43:00.102Z,6.00
2019-05-07T13:45:49.718Z,4.40
2019-05-07T13:48:23.716Z,6.97
2019-05-07T13:50:55.893Z,2.63
2019-05-07T13:53:27.313Z,9.13
2019-05-07T13:55:58.732Z,15.87
2019-05-07T13:58:30.176Z,14.20
2019-05-07T14:01:19.520Z,7.60
2019-05-07T14:03:51.291Z,5.30
2019-05-07T14:06:39.742Z,7.30
2019-05-07T14:09:24.490Z,5.90
2019-05-07T14:11:56.276Z,4.83
2019-05-07T14:14:34.215Z,4.63
2019-05-07T14:19:35.863Z,4.40
2019-05-07T14:22:15.226Z,6.57
2019-05-07T14:24:42.204Z,6.77
2019-05-07T14:27:13.758Z,3.20
2019-05-07T14:29:45.377Z,4.90
2019-05-07T14:32:48.147Z,2.50
2019-05-07T14:35:32.369Z,4.90
2019-05-07T14:38:13.661Z,2.77
2019-05-07T14:40:45.113Z,6.00
2019-05-07T14:43:26.596Z,5.13
2019-05-07T14:45:57.897Z,6.40
2019-05-07T14:48:29.263Z,3.13
2019-05-07T14:51:02.206Z,4.83
2019-05-07T14:53:33.818Z,5.90
2019-05-07T14:56:05.369Z,8.93
2019-05-07T14:58:36.938Z,7.07
2019-05-07T15:01:11.782Z,8.93
2019-05-07T15:03:43.837Z,8.07
2019-05-07T15:06:15.599Z,5.77
2019-05-07T15:08:47.733Z,4.27
2019-05-07T15:11:19.463Z,5.43
2019-05-07T15:13:52.198Z,4.73
2019-05-07T15:16:25.517Z,4.90
2019-05-07T15:18:58.661Z,4.67
2019-05-07T15:21:32.146Z,22.83
2019-05-07T15:24:03.119Z,8.37
2019-05-07T15:26:35.710Z,6.13
2019-05-07T15:29:12.073Z,3.03
2019-05-07T15:32:12.647Z,4.60
2019-05-07T15:34:44.775Z,4.60
2019-05-07T15:37:16.846Z,14.20
2019-05-07T15:39:48.223Z,8.13
2019-05-07T15:42:22.178Z,6.13
2019-05-07T15:44:54.077Z,6.93
2019-05-07T15:47:32.489Z,4.90
2019-05-07T15:50:04.803Z,4.30
2019-05-07T15:53:01.809Z,10.70
2019-05-07T15:55:34.566Z,3.77
2019-05-07T15:58:06.003Z,6.37
2019-05-07T16:00:38.701Z,4.20
2019-05-07T16:03:15.081Z,3.53
2019-05-07T16:05:46.484Z,7.37
2019-05-07T16:08:19.048Z,4.30
2019-05-07T16:10:52.966Z,4.13
2019-05-07T16:13:28.574Z,2.47
2019-05-07T16:16:02.262Z,5.03
2019-05-07T16:18:42.038Z,3.90
2019-05-07T16:21:13.531Z,11.00
2019-05-07T16:23:44.943Z,10.10
2019-05-07T16:26:16.851Z,7.77
2019-05-07T16:28:49.633Z,8.07
2019-05-07T16:31:21.954Z,3.53
2019-05-07T16:33:55.333Z,6.77
2019-05-07T16:36:27.561Z,4.77
2019-05-07T16:38:59.114Z,8.57
2019-05-07T16:41:31.814Z,4.77
2019-05-07T16:44:05.608Z,14.30
2019-05-07T16:46:36.979Z,6.97
2019-05-07T16:49:08.675Z,5.17
2019-05-07T16:51:41.923Z,4.50
2019-05-07T16:54:14.593Z,5.80
2019-05-07T16:57:03.567Z,7.23
2019-05-07T16:59:35.248Z,5.23
2019-05-07T17:02:13.740Z,4.77
2019-05-07T17:05:04.291Z,5.20
2019-05-07T17:07:42.216Z,3.53
2019-05-07T17:10:13.528Z,5.50
2019-05-07T17:12:46.967Z,6.03
2019-05-07T17:15:18.549Z,4.60
2019-05-07T17:17:52.837Z,8.03
2019-05-07T17:20:24.376Z,9.23
2019-05-07T17:22:55.912Z,6.50
2019-05-07T17:25:39.659Z,6.83
2019-05-07T17:28:12.591Z,6.90
2019-05-07T17:30:44.735Z,6.97
2019-05-07T17:33:16.411Z,8.03
2019-05-07T17:35:48.590Z,5.67
2019-05-07T17:38:22.878Z,8.40
2019-05-07T17:40:54.141Z,8.37
2019-05-07T17:43:25.775Z,6.77
2019-05-07T17:45:57.083Z,4.80
2019-05-07T17:48:29.669Z,5.73
2019-05-07T17:51:23.483Z,5.27
2019-05-07T17:54:00.138Z,7.87
2019-05-07T17:56:32.030Z,9.30
2019-05-07T17:59:03.554Z,10.20
2019-05-07T18:01:54.165Z,8.17
2019-05-07T18:04:29.277Z,5.43
2019-05-07T18:07:03.046Z,6.00
2019-05-07T18:09:36.242Z,6.27
2019-05-07T18:12:07.698Z,7.47
2019-05-07T18:14:39.492Z,7.67
2019-05-07T18:17:18.367Z,9.80
2019-05-07T18:19:51.388Z,8.20
2019-05-07T18:22:24.585Z,5.57
2019-05-07T18:24:56.928Z,85.37
2019-05-07T18:27:28.428Z,46.67
2019-05-07T18:29:59.692Z,29.07
2019-05-07T18:32:45.053Z,113.93
2019-05-07T18:35:17.475Z,76.30
2019-05-07T18:37:53.201Z,185.77
2019-05-07T18:40:24.967Z,29.77
2019-05-07T18:42:57.689Z,82.93
2019-05-07T18:45:30.295Z,72.07
2019-05-07T18:48:02.517Z,11.90
2019-05-07T18:50:34.148Z,10.03
2019-05-07T18:53:06.564Z,11.20
2019-05-07T18:55:37.910Z,16.17
2019-05-07T18:58:09.456Z,10.53
2019-05-07T19:00:45.678Z,25.03
2019-05-07T19:03:17.365Z,9.00
2019-05-07T19:05:49.209Z,10.60
2019-05-07T19:08:22.948Z,13.00
2019-05-07T19:10:54.298Z,18.20
2019-05-07T19:13:26.725Z,12.60
2019-05-07T19:15:58.169Z,10.43
2019-05-07T19:18:32.177Z,12.87
2019-05-07T19:21:06.726Z,12.57
2019-05-07T19:23:38.338Z,10.90
2019-05-07T19:26:10.192Z,12.67
2019-05-07T19:28:42.595Z,14.20
2019-05-07T19:31:14.207Z,10.37
2019-05-07T19:33:47.380Z,14.97
2019-05-07T19:36:19.199Z,11.30
2019-05-07T19:38:52.572Z,8.97
2019-05-07T19:41:24.489Z,10.30
2019-05-07T19:43:56.036Z,10.03
2019-05-07T19:46:28.281Z,13.77
2019-05-07T19:49:02.641Z,12.63
2019-05-07T19:51:33.596Z,15.93
2019-05-07T19:54:07.163Z,15.17
2019-05-07T19:56:38.810Z,13.07
2019-05-07T19:59:12.337Z,17.00
2019-05-07T20:01:48.449Z,25.97
2019-05-07T20:04:19.891Z,20.33
2019-05-07T20:06:52.247Z,27.17
2019-05-07T20:09:28.114Z,26.60
2019-05-07T20:11:59.438Z,29.87
2019-05-07T20:14:32.996Z,29.10
2019-05-07T20:17:04.496Z,54.20
2019-05-07T20:19:35.928Z,77.23
2019-05-07T20:22:07.538Z,33.70
2019-05-07T20:24:41.801Z,28.83
2019-05-07T20:27:13.452Z,34.70
2019-05-07T20:29:46.332Z,27.43
2019-05-07T20:32:17.979Z,32.20
2019-05-07T20:34:51.901Z,29.43
2019-05-07T20:37:22.527Z,30.53
2019-05-07T20:39:54.173Z,37.27
2019-05-07T20:42:26.275Z,40.60
2019-05-07T20:44:57.664Z,40.07
2019-05-07T20:47:29.806Z,35.97
2019-05-07T20:50:03.443Z,32.63
2019-05-07T20:52:34.804Z,35.23
2019-05-07T20:55:30.693Z,35.73
2019-05-07T20:57:58.644Z,38.73
2019-05-07T21:00:32.619Z,36.30
2019-05-07T21:03:23.407Z,46.60
2019-05-07T21:05:55.371Z,60.87
2019-05-07T21:08:28.619Z,45.20
2019-05-07T21:11:02.534Z,36.60
2019-05-07T21:13:36.326Z,39.53
2019-05-07T21:16:08.315Z,42.63
2019-05-07T21:18:42.122Z,44.33
2019-05-07T21:21:14.195Z,50.23
2019-05-07T21:23:46.048Z,60.77
2019-05-07T21:26:18.027Z,44.30
2019-05-07T21:28:49.636Z,33.60
2019-05-07T21:31:22.809Z,36.83
2019-05-07T21:33:54.799Z,31.57
2019-05-07T21:36:26.367Z,36.63
2019-05-07T21:38:57.809Z,40.70
2019-05-07T21:41:29.364Z,36.23
2019-05-07T21:44:02.108Z,40.40
2019-05-07T21:46:33.536Z,38.37
2019-05-07T21:49:05.124Z,47.83
2019-05-07T21:51:36.365Z,67.97
2019-05-07T21:54:24.682Z,81.83
2019-05-07T21:57:17.056Z,64.10
2019-05-07T21:59:52.146Z,46.27
2019-05-07T22:02:27.667Z,37.13
2019-05-07T22:05:02.488Z,41.57
2019-05-07T22:07:33.005Z,36.00
2019-05-07T22:10:04.380Z,35.87
2019-05-07T22:12:36.297Z,33.03
2019-05-07T22:15:07.966Z,38.33
2019-05-07T22:17:39.514Z,38.37
2019-05-07T22:20:11.986Z,32.90
2019-05-07T22:22:43.521Z,34.67
2019-05-07T22:25:15.586Z,31.30
2019-05-07T22:27:49.203Z,31.13
2019-05-07T22:30:27.178Z,29.17
2019-05-07T22:33:05.525Z,30.87
2019-05-07T22:35:40.207Z,43.20
2019-05-07T22:38:16.991Z,34.70
2019-05-07T22:40:51.318Z,47.63
2019-05-07T22:43:22.726Z,33.67
2019-05-07T22:45:54.297Z,33.93
2019-05-07T22:48:25.806Z,36.53
2019-05-07T22:50:57.148Z,36.83
2019-05-07T22:53:28.540Z,36.07
2019-05-07T22:56:00.038Z,36.53
2019-05-07T22:58:39.106Z,38.13
2019-05-07T23:01:13.059Z,35.33
2019-05-07T23:03:45.896Z,34.70
2019-05-07T23:06:17.794Z,44.77
2019-05-07T23:08:49.304Z,39.17
2019-05-07T23:11:22.683Z,33.10
2019-05-07T23:13:54.758Z,33.23
2019-05-07T23:16:27.863Z,35.20
2019-05-07T23:18:59.221Z,32.97
2019-05-07T23:21:31.928Z,31.97
2019-05-07T23:24:04.523Z,25.83
2019-05-07T23:26:47.293Z,31.30
2019-05-07T23:29:09.003Z,34.93
2019-05-07T23:31:41.088Z,27.70
2019-05-07T23:34:13.362Z,26.70
2019-05-07T23:36:45.276Z,28.83
2019-05-07T23:39:18.734Z,24.87
2019-05-07T23:42:04.263Z,27.80
2019-05-07T23:44:35.706Z,27.83
2019-05-07T23:47:07.608Z,29.07
2019-05-07T23:49:38.962Z,25.90
2019-05-07T23:52:10.407Z,29.30
2019-05-07T23:54:42.613Z,26.63
2019-05-07T23:57:15.417Z,25.77
2019-05-07T23:59:46.844Z,29.73
